createdAt,value
2022-11-07T00:00:09.994Z,7.20
2022-11-07T00:02:58.254Z,6.97
2022-11-07T00:05:26.938Z,8.37
2022-11-07T00:07:55.193Z,7.07
2022-11-07T00:10:23.747Z,7.37
2022-11-07T00:12:53.341Z,7.83
2022-11-07T00:15:21.991Z,6.67
2022-11-07T00:17:50.328Z,7.13
2022-11-07T00:20:18.844Z,6.53
2022-11-07T00:22:47.060Z,7.50
2022-11-07T00:25:16.037Z,6.80
2022-11-07T00:27:44.857Z,7.43
2022-11-07T00:30:15.225Z,7.77
2022-11-07T00:32:43.421Z,7.63
2022-11-07T00:35:12.013Z,6.87
2022-11-07T00:37:40.349Z,7.30
2022-11-07T00:40:10.700Z,7.40
2022-11-07T00:42:39.064Z,7.43
2022-11-07T00:45:08.735Z,6.87
2022-11-07T00:47:38.546Z,6.33
2022-11-07T00:50:08.086Z,7.33
2022-11-07T00:52:36.342Z,8.63
2022-11-07T00:55:05.883Z,6.90
2022-11-07T00:57:34.142Z,7.20
2022-11-07T01:00:02.790Z,8.80
2022-11-07T01:02:31.174Z,8.13
2022-11-07T01:05:12.143Z,8.70
2022-11-07T01:07:41.037Z,7.23
2022-11-07T01:10:10.044Z,8.33
2022-11-07T01:12:38.529Z,9.00
2022-11-07T01:15:08.039Z,8.60
2022-11-07T01:17:36.526Z,8.33
2022-11-07T01:20:08.487Z,8.20
2022-11-07T01:22:37.041Z,8.23
2022-11-07T01:25:06.506Z,8.47
2022-11-07T01:27:35.156Z,8.97
2022-11-07T01:30:04.174Z,8.93
2022-11-07T01:32:32.419Z,8.60
2022-11-07T01:35:01.085Z,8.23
2022-11-07T01:37:30.759Z,9.20
2022-11-07T01:39:59.450Z,8.53
2022-11-07T01:42:28.072Z,8.07
2022-11-07T01:44:59.278Z,8.80
2022-11-07T01:47:32.238Z,7.80
2022-11-07T01:50:02.108Z,8.80
2022-11-07T01:52:35.837Z,8.33
2022-11-07T01:55:09.567Z,8.40
2022-11-07T01:57:41.518Z,8.90
2022-11-07T02:00:13.635Z,7.53
2022-11-07T02:02:42.719Z,8.17
2022-11-07T02:05:14.841Z,7.30
2022-11-07T02:07:45.386Z,10.10
2022-11-07T02:10:15.470Z,8.13
2022-11-07T02:12:44.897Z,9.07
2022-11-07T02:15:13.667Z,8.80
2022-11-07T02:17:42.167Z,8.07
2022-11-07T02:20:12.385Z,8.43
2022-11-07T02:22:47.612Z,7.17
2022-11-07T02:25:19.618Z,7.47
2022-11-07T02:27:50.926Z,8.03
2022-11-07T02:30:23.165Z,8.93
2022-11-07T02:32:51.988Z,8.70
2022-11-07T02:35:38.467Z,6.93
2022-11-07T02:38:12.243Z,8.90
2022-11-07T02:40:44.409Z,9.00
2022-11-07T02:43:14.775Z,7.97
2022-11-07T02:45:46.841Z,8.57
2022-11-07T02:48:15.221Z,8.77
2022-11-07T02:50:43.935Z,8.20
2022-11-07T02:53:12.632Z,7.97
2022-11-07T02:55:42.867Z,9.43
2022-11-07T02:58:11.052Z,8.33
2022-11-07T03:00:39.820Z,8.83
2022-11-07T03:03:08.281Z,8.30
2022-11-07T03:05:36.791Z,7.33
2022-11-07T03:08:05.442Z,7.87
2022-11-07T03:10:34.085Z,7.43
2022-11-07T03:13:04.299Z,7.57
2022-11-07T03:15:32.960Z,8.53
2022-11-07T03:18:01.275Z,9.03
2022-11-07T03:20:30.106Z,9.10
2022-11-07T03:22:58.394Z,7.37
2022-11-07T03:25:27.067Z,8.57
2022-11-07T03:27:55.466Z,7.70
2022-11-07T03:30:25.770Z,8.43
2022-11-07T03:32:54.421Z,8.47
2022-11-07T03:35:23.787Z,8.83
2022-11-07T03:37:52.142Z,8.40
2022-11-07T03:40:21.031Z,8.93
2022-11-07T03:42:49.530Z,8.00
2022-11-07T03:45:18.719Z,8.80
2022-11-07T03:47:48.523Z,7.80
2022-11-07T03:50:18.761Z,8.10
2022-11-07T03:52:47.578Z,9.33
2022-11-07T03:55:18.330Z,9.27
2022-11-07T03:57:47.796Z,9.13
2022-11-07T04:00:17.913Z,7.80
2022-11-07T04:02:46.569Z,7.17
2022-11-07T04:05:16.705Z,8.03
2022-11-07T04:07:45.094Z,7.97
2022-11-07T04:10:13.658Z,8.50
2022-11-07T04:12:59.386Z,8.70
2022-11-07T04:15:45.701Z,9.53
2022-11-07T04:18:13.958Z,8.37
2022-11-07T04:20:43.902Z,7.20
2022-11-07T04:23:12.450Z,8.30
2022-11-07T04:25:58.553Z,8.67
2022-11-07T04:28:26.884Z,7.63
2022-11-07T04:30:55.834Z,8.93
2022-11-07T04:33:24.377Z,8.37
2022-11-07T04:35:54.294Z,9.03
2022-11-07T04:38:22.630Z,9.67
2022-11-07T04:40:55.482Z,8.70
2022-11-07T04:43:24.534Z,8.70
2022-11-07T04:45:53.277Z,9.37
2022-11-07T04:48:21.759Z,9.83
2022-11-07T04:50:51.050Z,9.33
2022-11-07T04:53:20.781Z,8.47
2022-11-07T04:55:49.490Z,9.63
2022-11-07T04:58:17.708Z,9.23
2022-11-07T05:00:46.310Z,9.90
2022-11-07T05:03:15.068Z,10.30
2022-11-07T05:05:43.888Z,9.20
2022-11-07T05:08:12.319Z,10.87
2022-11-07T05:10:42.949Z,12.03
2022-11-07T05:13:11.356Z,10.40
2022-11-07T05:15:40.266Z,12.30
2022-11-07T05:18:08.482Z,12.33
2022-11-07T05:20:39.264Z,11.57
2022-11-07T05:23:13.577Z,10.83
2022-11-07T05:25:45.134Z,10.80
2022-11-07T05:28:14.493Z,11.33
2022-11-07T05:30:45.254Z,12.07
2022-11-07T05:33:15.238Z,10.83
2022-11-07T05:35:44.406Z,12.07
2022-11-07T05:38:12.764Z,12.73
2022-11-07T05:40:43.428Z,12.43
2022-11-07T05:43:14.403Z,12.23
2022-11-07T05:45:43.409Z,11.87
2022-11-07T05:48:14.047Z,13.17
2022-11-07T05:50:42.803Z,12.60
2022-11-07T05:53:11.220Z,11.97
2022-11-07T05:55:40.123Z,11.80
2022-11-07T05:58:13.370Z,11.03
2022-11-07T06:00:42.679Z,12.57
2022-11-07T06:03:11.769Z,12.97
2022-11-07T06:05:41.199Z,11.23
2022-11-07T06:08:12.308Z,11.00
2022-11-07T06:10:42.213Z,13.63
2022-11-07T06:13:14.835Z,12.07
2022-11-07T06:15:46.028Z,12.23
2022-11-07T06:18:16.903Z,13.57
2022-11-07T06:20:45.977Z,11.90
2022-11-07T06:23:15.278Z,11.80
2022-11-07T06:25:44.544Z,12.03
2022-11-07T06:28:16.088Z,13.70
2022-11-07T06:30:45.654Z,12.63
2022-11-07T06:33:16.773Z,12.97
2022-11-07T06:35:46.683Z,12.37
2022-11-07T06:38:16.471Z,12.90
2022-11-07T06:40:45.653Z,13.53
2022-11-07T06:43:18.395Z,13.10
2022-11-07T06:45:48.995Z,13.10
2022-11-07T06:48:18.429Z,12.13
2022-11-07T06:50:47.115Z,12.53
2022-11-07T06:53:16.219Z,12.23
2022-11-07T06:55:45.096Z,12.57
2022-11-07T06:58:13.376Z,13.47
2022-11-07T07:00:43.489Z,11.13
2022-11-07T07:03:13.279Z,12.17
2022-11-07T07:05:42.587Z,13.17
2022-11-07T07:08:12.911Z,12.57
2022-11-07T07:10:44.732Z,11.32
2022-11-07T07:13:14.665Z,10.20
2022-11-07T07:15:53.139Z,10.97
2022-11-07T07:18:22.475Z,12.03
2022-11-07T07:20:52.234Z,11.57
2022-11-07T07:23:21.954Z,11.80
2022-11-07T07:25:52.991Z,10.40
2022-11-07T07:28:21.255Z,11.70
2022-11-07T07:30:54.325Z,12.10
2022-11-07T07:33:23.184Z,12.87
2022-11-07T07:35:51.830Z,12.33
2022-11-07T07:38:20.464Z,12.67
2022-11-07T07:40:49.295Z,11.80
2022-11-07T07:43:18.103Z,12.83
2022-11-07T07:45:47.047Z,11.80
2022-11-07T07:48:16.805Z,11.68
2022-11-07T07:50:45.369Z,11.87
2022-11-07T07:53:13.692Z,10.37
2022-11-07T07:55:42.438Z,12.77
2022-11-07T07:58:11.143Z,12.23
2022-11-07T08:00:41.268Z,12.40
2022-11-07T08:03:11.598Z,12.52
2022-11-07T08:05:41.646Z,13.13
2022-11-07T08:08:10.498Z,11.55
2022-11-07T08:10:43.282Z,11.87
2022-11-07T08:13:11.966Z,12.32
2022-11-07T08:15:40.698Z,11.63
2022-11-07T08:18:08.991Z,10.73
2022-11-07T08:20:37.816Z,11.63
2022-11-07T08:23:14.786Z,11.83
2022-11-07T08:25:49.824Z,11.70
2022-11-07T08:28:18.628Z,13.30
2022-11-07T08:30:48.231Z,14.00
2022-11-07T08:33:17.396Z,14.85
2022-11-07T08:35:46.273Z,14.10
2022-11-07T08:38:15.928Z,12.43
2022-11-07T08:40:44.710Z,13.90
2022-11-07T08:43:13.043Z,13.48
2022-11-07T08:45:41.748Z,13.70
2022-11-07T08:48:10.441Z,13.00
2022-11-07T08:50:39.040Z,13.85
2022-11-07T08:53:07.942Z,14.75
2022-11-07T08:55:37.989Z,14.40
2022-11-07T08:58:09.324Z,12.77
2022-11-07T09:00:38.601Z,13.73
2022-11-07T09:03:38.760Z,14.25
2022-11-07T09:05:58.507Z,15.52
2022-11-07T09:08:27.192Z,13.38
2022-11-07T09:10:57.187Z,12.40
2022-11-07T09:13:25.769Z,14.80
2022-11-07T09:15:58.106Z,14.85
2022-11-07T09:18:27.013Z,15.60
2022-11-07T09:20:55.978Z,14.10
2022-11-07T09:23:24.183Z,14.77
2022-11-07T09:25:52.911Z,13.35
2022-11-07T09:28:22.605Z,14.20
2022-11-07T09:30:55.089Z,13.00
2022-11-07T09:33:24.561Z,12.95
2022-11-07T09:35:53.625Z,12.23
2022-11-07T09:38:22.212Z,11.93
2022-11-07T09:40:57.418Z,11.98
2022-11-07T09:43:39.786Z,10.50
2022-11-07T09:46:23.976Z,11.05
2022-11-07T09:48:57.167Z,10.88
2022-11-07T09:51:33.798Z,9.85
2022-11-07T09:54:07.268Z,11.48
2022-11-07T09:56:36.481Z,9.63
2022-11-07T09:59:14.615Z,9.82
2022-11-07T10:01:43.684Z,9.05
2022-11-07T10:04:26.686Z,8.18
2022-11-07T10:07:02.432Z,8.75
2022-11-07T10:09:39.488Z,9.57
2022-11-07T10:12:22.091Z,9.02
2022-11-07T10:15:01.852Z,6.85
2022-11-07T10:17:36.992Z,9.02
2022-11-07T10:20:14.101Z,8.18
2022-11-07T10:22:54.320Z,8.35
2022-11-07T10:25:30.142Z,8.48
2022-11-07T10:28:13.497Z,8.82
2022-11-07T10:30:44.591Z,8.95
2022-11-07T10:33:23.914Z,8.75
2022-11-07T10:35:57.601Z,8.98
2022-11-07T10:38:28.575Z,8.82
2022-11-07T10:40:57.466Z,10.20
2022-11-07T10:43:34.154Z,9.23
2022-11-07T10:46:06.693Z,9.90
2022-11-07T10:48:36.070Z,8.75
2022-11-07T10:51:04.430Z,9.45
2022-11-07T10:53:33.130Z,7.63
2022-11-07T10:56:01.510Z,8.20
2022-11-07T10:58:35.753Z,7.50
2022-11-07T11:01:07.650Z,8.20
2022-11-07T11:03:44.914Z,7.05
2022-11-07T11:06:24.261Z,7.75
2022-11-07T11:08:53.970Z,6.95
2022-11-07T11:11:34.763Z,7.72
2022-11-07T11:14:08.420Z,7.57
2022-11-07T11:16:41.348Z,7.63
2022-11-07T11:19:21.021Z,7.97
2022-11-07T11:21:51.672Z,6.00
2022-11-07T11:24:37.602Z,7.18
2022-11-07T11:27:15.689Z,6.80
2022-11-07T11:29:53.622Z,6.47
2022-11-07T11:32:31.787Z,6.88
2022-11-07T11:35:09.254Z,6.97
2022-11-07T11:37:42.718Z,5.72
2022-11-07T11:40:19.783Z,5.45
2022-11-07T11:42:54.056Z,6.72
2022-11-07T11:45:32.270Z,5.40
2022-11-07T11:48:11.545Z,4.85
2022-11-07T11:50:45.612Z,5.40
2022-11-07T11:53:18.063Z,5.25
2022-11-07T11:55:55.313Z,5.47
2022-11-07T11:58:42.299Z,5.28
2022-11-07T12:01:23.032Z,4.25
2022-11-07T12:04:22.186Z,5.30
2022-11-07T12:06:55.978Z,5.15
2022-11-07T12:09:34.080Z,4.72
2022-11-07T12:12:20.643Z,5.32
2022-11-07T12:15:14.769Z,5.47
2022-11-07T12:17:49.380Z,4.88
2022-11-07T12:20:23.346Z,4.28
2022-11-07T12:23:04.828Z,4.68
2022-11-07T12:25:47.396Z,5.00
2022-11-07T12:28:32.997Z,4.63
2022-11-07T12:31:12.441Z,4.30
2022-11-07T12:33:47.810Z,4.30
2022-11-07T12:36:34.086Z,4.75
2022-11-07T12:39:22.841Z,4.22
2022-11-07T12:41:58.601Z,5.28
2022-11-07T12:44:45.502Z,4.65
2022-11-07T12:47:28.515Z,4.10
2022-11-07T12:50:06.960Z,4.45
2022-11-07T12:52:45.268Z,4.80
2022-11-07T12:55:22.449Z,4.78
2022-11-07T12:57:54.929Z,4.80
2022-11-07T13:00:29.616Z,4.00
2022-11-07T13:03:43.956Z,4.65
2022-11-07T13:06:17.927Z,4.40
2022-11-07T13:08:55.169Z,4.13
2022-11-07T13:11:31.252Z,4.57
2022-11-07T13:14:23.736Z,3.78
2022-11-07T13:16:55.323Z,3.90
2022-11-07T13:19:33.142Z,4.10
2022-11-07T13:22:05.242Z,4.20
2022-11-07T13:24:36.488Z,3.75
2022-11-07T13:27:16.817Z,3.78
2022-11-07T13:29:46.662Z,3.55
2022-11-07T13:32:17.057Z,4.03
2022-11-07T13:34:50.832Z,3.70
2022-11-07T13:37:22.629Z,3.85
2022-11-07T13:39:55.884Z,3.50
2022-11-07T13:42:27.998Z,3.38
2022-11-07T13:45:03.695Z,4.13
2022-11-07T13:47:40.234Z,3.10
2022-11-07T13:50:17.977Z,4.50
2022-11-07T13:52:56.222Z,4.38
2022-11-07T13:55:30.145Z,3.38
2022-11-07T13:58:05.154Z,4.13
2022-11-07T14:00:35.809Z,3.35
2022-11-07T14:03:04.869Z,3.65
2022-11-07T14:05:36.701Z,3.60
2022-11-07T14:08:07.404Z,3.10
2022-11-07T14:10:40.610Z,3.67
2022-11-07T14:13:11.786Z,4.13
2022-11-07T14:15:49.584Z,3.20
2022-11-07T14:18:19.823Z,4.25
2022-11-07T14:20:49.534Z,3.38
2022-11-07T14:23:22.645Z,3.20
2022-11-07T14:25:59.926Z,3.47
2022-11-07T14:28:35.900Z,3.38
2022-11-07T14:31:10.708Z,3.70
2022-11-07T14:33:39.534Z,3.20
2022-11-07T14:36:08.116Z,3.20
2022-11-07T14:38:36.833Z,3.80
2022-11-07T14:41:05.253Z,4.00
2022-11-07T14:43:35.691Z,3.35
2022-11-07T14:46:13.661Z,3.80
2022-11-07T14:48:45.057Z,3.90
2022-11-07T14:51:15.978Z,3.28
2022-11-07T14:53:54.399Z,3.92
2022-11-07T14:56:26.712Z,3.10
2022-11-07T14:58:55.544Z,3.90
2022-11-07T15:01:30.938Z,3.88
2022-11-07T15:04:02.937Z,3.60
2022-11-07T15:06:34.557Z,3.88
2022-11-07T15:09:05.362Z,4.50
2022-11-07T15:11:36.299Z,3.83
2022-11-07T15:14:07.840Z,4.05
2022-11-07T15:16:40.406Z,4.22
2022-11-07T15:19:11.196Z,5.03
2022-11-07T15:21:51.870Z,5.65
2022-11-07T15:24:36.440Z,4.82
2022-11-07T15:27:07.310Z,6.97
2022-11-07T15:29:37.448Z,5.97
2022-11-07T15:32:15.342Z,6.10
2022-11-07T15:37:32.443Z,6.57
2022-11-07T15:40:01.410Z,5.45
2022-11-07T15:42:30.423Z,6.80
2022-11-07T15:44:59.116Z,6.32
2022-11-07T15:47:29.047Z,5.90
2022-11-07T15:49:58.071Z,6.95
2022-11-07T15:52:26.791Z,5.82
2022-11-07T15:54:55.531Z,6.38
2022-11-07T15:57:23.896Z,5.72
2022-11-07T15:59:52.488Z,7.30
2022-11-07T16:02:20.937Z,5.78
2022-11-07T16:04:50.893Z,6.38
2022-11-07T16:07:21.468Z,6.47
2022-11-07T16:09:50.433Z,5.65
2022-11-07T16:12:20.007Z,4.93
2022-11-07T16:14:48.637Z,6.00
2022-11-07T16:17:18.360Z,5.60
2022-11-07T16:19:47.985Z,4.78
2022-11-07T16:22:17.992Z,5.70
2022-11-07T16:24:46.495Z,5.97
2022-11-07T16:27:18.358Z,5.20
2022-11-07T16:29:47.206Z,5.40
2022-11-07T16:32:18.368Z,4.90
2022-11-07T16:34:47.973Z,5.00
2022-11-07T16:37:17.702Z,5.03
2022-11-07T16:39:46.578Z,5.13
2022-11-07T16:42:16.270Z,5.25
2022-11-07T16:44:44.959Z,5.43
2022-11-07T16:47:15.742Z,4.70
2022-11-07T16:49:49.076Z,4.90
2022-11-07T16:52:21.004Z,6.47
2022-11-07T16:54:49.592Z,4.53
2022-11-07T16:57:19.261Z,5.35
2022-11-07T16:59:48.070Z,5.25
2022-11-07T17:02:21.099Z,5.43
2022-11-07T17:04:51.159Z,5.70
2022-11-07T17:07:23.859Z,5.70
2022-11-07T17:09:53.997Z,6.40
2022-11-07T17:12:24.429Z,6.07
2022-11-07T17:14:54.025Z,6.00
2022-11-07T17:17:22.793Z,5.65
2022-11-07T17:19:51.357Z,6.93
2022-11-07T17:22:21.188Z,6.80
2022-11-07T17:24:49.871Z,7.10
2022-11-07T17:27:23.892Z,6.22
2022-11-07T17:29:53.478Z,7.43
2022-11-07T17:32:22.308Z,4.95
2022-11-07T17:35:17.687Z,5.82
2022-11-07T17:37:40.659Z,7.53
2022-11-07T17:40:16.796Z,5.18
2022-11-07T17:42:45.141Z,5.15
2022-11-07T17:45:13.678Z,5.40
2022-11-07T17:47:41.976Z,6.45
2022-11-07T17:50:15.761Z,7.22
2022-11-07T17:52:45.680Z,6.03
2022-11-07T17:55:14.872Z,5.43
2022-11-07T17:57:44.573Z,5.15
2022-11-07T18:00:17.827Z,4.95
2022-11-07T18:02:46.686Z,5.25
2022-11-07T18:05:16.399Z,4.70
2022-11-07T18:07:47.088Z,6.22
2022-11-07T18:10:17.256Z,6.03
2022-11-07T18:12:45.900Z,5.47
2022-11-07T18:15:14.669Z,5.10
2022-11-07T18:17:43.520Z,5.75
2022-11-07T18:20:12.357Z,4.90
2022-11-07T18:22:40.571Z,5.10
2022-11-07T18:25:10.830Z,4.65
2022-11-07T18:27:39.167Z,4.70
2022-11-07T18:30:08.975Z,4.45
2022-11-07T18:32:37.282Z,4.78
2022-11-07T18:35:06.658Z,3.85
2022-11-07T18:37:34.933Z,3.90
2022-11-07T18:40:03.904Z,4.70
2022-11-07T18:42:33.601Z,4.72
2022-11-07T18:45:02.393Z,5.07
2022-11-07T18:47:30.979Z,4.78
2022-11-07T18:49:59.706Z,4.50
2022-11-07T18:52:30.650Z,3.92
2022-11-07T18:54:59.414Z,4.45
2022-11-07T18:57:27.791Z,4.45
2022-11-07T18:59:57.839Z,4.88
2022-11-07T19:02:27.597Z,4.75
2022-11-07T19:04:56.135Z,3.90
2022-11-07T19:07:24.468Z,5.43
2022-11-07T19:09:53.037Z,5.55
2022-11-07T19:12:21.348Z,4.15
2022-11-07T19:14:49.936Z,4.68
2022-11-07T19:17:19.603Z,4.57
2022-11-07T19:19:48.216Z,4.38
2022-11-07T19:22:17.132Z,4.05
2022-11-07T19:24:46.618Z,3.85
2022-11-07T19:27:14.999Z,4.15
2022-11-07T19:29:43.719Z,5.18
2022-11-07T19:32:12.351Z,4.70
2022-11-07T19:34:42.770Z,4.82
2022-11-07T19:37:11.498Z,5.18
2022-11-07T19:39:40.356Z,4.80
2022-11-07T19:42:08.748Z,5.13
2022-11-07T19:44:37.905Z,5.57
2022-11-07T19:47:08.265Z,5.53
2022-11-07T19:49:36.776Z,5.63
2022-11-07T19:52:07.022Z,5.30
2022-11-07T19:54:36.067Z,5.53
2022-11-07T19:57:05.051Z,6.00
2022-11-07T19:59:33.963Z,4.53
2022-11-07T20:02:31.215Z,5.80
2022-11-07T20:04:50.948Z,5.65
2022-11-07T20:07:20.727Z,5.25
2022-11-07T20:09:49.384Z,6.75
2022-11-07T20:12:17.962Z,5.25
2022-11-07T20:14:46.681Z,5.47
2022-11-07T20:17:15.046Z,5.45
2022-11-07T20:19:43.799Z,5.63
2022-11-07T20:22:13.885Z,6.18
2022-11-07T20:24:43.879Z,5.70
2022-11-07T20:27:12.152Z,5.50
2022-11-07T20:29:40.736Z,5.80
2022-11-07T20:32:09.442Z,5.85
2022-11-07T20:34:38.107Z,6.35
2022-11-07T20:37:07.428Z,6.70
2022-11-07T20:39:36.312Z,6.93
2022-11-07T20:42:06.425Z,6.22
2022-11-07T20:44:35.171Z,7.63
2022-11-07T20:47:03.891Z,6.43
2022-11-07T20:49:32.549Z,6.05
2022-11-07T20:52:01.455Z,5.70
2022-11-07T20:54:30.794Z,6.30
2022-11-07T20:56:59.464Z,6.22
2022-11-07T20:59:29.614Z,6.90
2022-11-07T21:02:03.159Z,6.10
2022-11-07T21:04:49.798Z,5.97
2022-11-07T21:07:23.671Z,6.35
2022-11-07T21:09:52.613Z,5.55
2022-11-07T21:12:21.063Z,5.85
2022-11-07T21:14:51.425Z,6.30
2022-11-07T21:17:20.368Z,6.13
2022-11-07T21:19:48.914Z,6.30
2022-11-07T21:22:17.414Z,6.00
2022-11-07T21:24:47.112Z,6.80
2022-11-07T21:27:15.401Z,5.95
2022-11-07T21:29:44.047Z,6.95
2022-11-07T21:32:14.017Z,5.78
2022-11-07T21:34:42.806Z,6.93
2022-11-07T21:37:11.400Z,6.00
2022-11-07T21:39:39.970Z,5.38
2022-11-07T21:42:08.322Z,5.63
2022-11-07T21:44:36.828Z,5.40
2022-11-07T21:47:05.146Z,6.45
2022-11-07T21:49:35.240Z,5.95
2022-11-07T21:52:03.831Z,5.95
2022-11-07T21:54:32.371Z,6.10
2022-11-07T21:57:01.361Z,5.47
2022-11-07T21:59:29.977Z,5.70
2022-11-07T22:01:58.577Z,5.57
2022-11-07T22:04:27.526Z,6.88
2022-11-07T22:06:57.636Z,6.13
2022-11-07T22:09:26.653Z,5.43
2022-11-07T22:11:54.959Z,5.80
2022-11-07T22:14:24.142Z,5.65
2022-11-07T22:16:52.650Z,5.57
2022-11-07T22:19:21.688Z,5.32
2022-11-07T22:21:50.588Z,5.57
2022-11-07T22:24:20.636Z,5.25
2022-11-07T22:26:48.809Z,5.30
2022-11-07T22:29:17.447Z,5.07
2022-11-07T22:31:45.806Z,5.50
2022-11-07T22:34:14.829Z,5.38
2022-11-07T22:36:43.710Z,6.25
2022-11-07T22:39:12.681Z,6.85
2022-11-07T22:41:42.417Z,5.30
2022-11-07T22:44:11.085Z,5.82
2022-11-07T22:46:39.635Z,5.88
2022-11-07T22:49:08.282Z,4.72
2022-11-07T22:51:37.045Z,5.82
2022-11-07T22:54:08.148Z,5.45
2022-11-07T22:56:37.981Z,5.32
2022-11-07T22:59:08.727Z,6.60
2022-11-07T23:01:39.611Z,4.93
2022-11-07T23:04:09.308Z,6.45
2022-11-07T23:06:37.612Z,4.97
2022-11-07T23:09:06.226Z,5.10
2022-11-07T23:11:51.607Z,5.40
2022-11-07T23:14:25.581Z,5.30
2022-11-07T23:16:56.094Z,4.15
2022-11-07T23:19:26.690Z,5.03
2022-11-07T23:21:56.764Z,6.15
2022-11-07T23:24:25.568Z,4.90
2022-11-07T23:26:53.778Z,5.95
2022-11-07T23:29:25.421Z,4.90
2022-11-07T23:31:54.111Z,5.65
2022-11-07T23:34:23.280Z,5.32
2022-11-07T23:36:52.718Z,5.30
2022-11-07T23:39:23.524Z,4.88
2022-11-07T23:41:51.940Z,5.85
2022-11-07T23:44:20.506Z,5.80
2022-11-07T23:47:07.805Z,5.13
2022-11-07T23:49:53.998Z,5.90
2022-11-07T23:52:22.325Z,5.22
2022-11-07T23:55:08.430Z,4.90
2022-11-07T23:57:58.147Z,4.95
